sensor_id;sensor_type;location;lat;lon;timestamp;temperature;humidity
74940;HTU21D;63505;45.226;37.908;2023-12-20T00:01:38;6.27;88.81
74940;HTU21D;63505;45.226;37.908;2023-12-20T00:04:05;6.34;88.76
74940;HTU21D;63505;45.226;37.908;2023-12-20T00:06:31;6.38;88.67
74940;HTU21D;63505;45.226;37.908;2023-12-20T00:08:57;6.42;88.60
74940;HTU21D;63505;45.226;37.908;2023-12-20T00:11:25;6.46;88.55
74940;HTU21D;63505;45.226;37.908;2023-12-20T00:13:52;6.52;88.43
74940;HTU21D;63505;45.226;37.908;2023-12-20T00:16:17;6.51;88.32
74940;HTU21D;63505;45.226;37.908;2023-12-20T00:18:43;6.49;88.28
74940;HTU21D;63505;45.226;37.908;2023-12-20T00:21:09;6.44;88.25
74940;HTU21D;63505;45.226;37.908;2023-12-20T00:23:35;6.39;88.25
74940;HTU21D;63505;45.226;37.908;2023-12-20T00:26:01;6.33;88.35
74940;HTU21D;63505;45.226;37.908;2023-12-20T00:28:27;6.25;88.44
74940;HTU21D;63505;45.226;37.908;2023-12-20T00:30:53;6.17;88.51
74940;HTU21D;63505;45.226;37.908;2023-12-20T00:33:19;6.13;88.66
74940;HTU21D;63505;45.226;37.908;2023-12-20T00:35:45;6.12;88.80
74940;HTU21D;63505;45.226;37.908;2023-12-20T00:38:10;6.13;88.79
74940;HTU21D;63505;45.226;37.908;2023-12-20T00:40:37;6.16;88.82
74940;HTU21D;63505;45.226;37.908;2023-12-20T00:43:03;6.16;88.81
74940;HTU21D;63505;45.226;37.908;2023-12-20T00:45:29;6.17;88.77
74940;HTU21D;63505;45.226;37.908;2023-12-20T00:47:55;6.20;88.78
74940;HTU21D;63505;45.226;37.908;2023-12-20T00:50:21;6.20;88.77
74940;HTU21D;63505;45.226;37.908;2023-12-20T00:52:48;6.23;88.79
74940;HTU21D;63505;45.226;37.908;2023-12-20T00:55:13;6.28;88.75
74940;HTU21D;63505;45.226;37.908;2023-12-20T00:57:39;6.30;88.73
74940;HTU21D;63505;45.226;37.908;2023-12-20T01:00:06;6.35;88.67
74940;HTU21D;63505;45.226;37.908;2023-12-20T01:02:32;6.39;88.59
74940;HTU21D;63505;45.226;37.908;2023-12-20T01:04:58;6.39;88.56
74940;HTU21D;63505;45.226;37.908;2023-12-20T01:07:23;6.40;88.50
74940;HTU21D;63505;45.226;37.908;2023-12-20T01:09:49;6.40;88.53
74940;HTU21D;63505;45.226;37.908;2023-12-20T01:12:15;6.43;88.57
74940;HTU21D;63505;45.226;37.908;2023-12-20T01:14:41;6.42;88.53
74940;HTU21D;63505;45.226;37.908;2023-12-20T01:17:07;6.41;88.60
74940;HTU21D;63505;45.226;37.908;2023-12-20T01:19:33;6.40;88.64
74940;HTU21D;63505;45.226;37.908;2023-12-20T01:21:59;6.40;88.65
74940;HTU21D;63505;45.226;37.908;2023-12-20T01:24:25;6.38;88.73
74940;HTU21D;63505;45.226;37.908;2023-12-20T01:26:50;6.39;88.81
74940;HTU21D;63505;45.226;37.908;2023-12-20T01:29:16;6.39;88.88
74940;HTU21D;63505;45.226;37.908;2023-12-20T01:31:42;6.40;88.94
74940;HTU21D;63505;45.226;37.908;2023-12-20T01:34:08;6.41;88.97
74940;HTU21D;63505;45.226;37.908;2023-12-20T01:36:34;6.42;89.03
74940;HTU21D;63505;45.226;37.908;2023-12-20T01:39:00;6.43;89.08
74940;HTU21D;63505;45.226;37.908;2023-12-20T01:41:26;6.43;89.11
74940;HTU21D;63505;45.226;37.908;2023-12-20T01:43:51;6.46;89.11
74940;HTU21D;63505;45.226;37.908;2023-12-20T01:46:19;6.50;89.09
74940;HTU21D;63505;45.226;37.908;2023-12-20T01:48:47;6.52;88.99
74940;HTU21D;63505;45.226;37.908;2023-12-20T01:51:13;6.53;88.96
74940;HTU21D;63505;45.226;37.908;2023-12-20T01:53:40;6.54;88.97
74940;HTU21D;63505;45.226;37.908;2023-12-20T01:56:07;6.52;88.99
74940;HTU21D;63505;45.226;37.908;2023-12-20T01:58:33;6.53;89.05
74940;HTU21D;63505;45.226;37.908;2023-12-20T02:00:59;6.54;89.07
74940;HTU21D;63505;45.226;37.908;2023-12-20T02:03:27;6.60;89.12
74940;HTU21D;63505;45.226;37.908;2023-12-20T02:05:53;6.68;89.07
74940;HTU21D;63505;45.226;37.908;2023-12-20T02:08:19;6.76;89.03
74940;HTU21D;63505;45.226;37.908;2023-12-20T02:10:44;6.85;88.94
74940;HTU21D;63505;45.226;37.908;2023-12-20T02:13:10;6.94;88.83
74940;HTU21D;63505;45.226;37.908;2023-12-20T02:15:36;7.02;88.72
74940;HTU21D;63505;45.226;37.908;2023-12-20T02:18:07;7.07;88.62
74940;HTU21D;63505;45.226;37.908;2023-12-20T02:20:33;7.11;88.54
74940;HTU21D;63505;45.226;37.908;2023-12-20T02:22:59;7.12;88.47
74940;HTU21D;63505;45.226;37.908;2023-12-20T02:25:25;7.13;88.48
74940;HTU21D;63505;45.226;37.908;2023-12-20T02:27:51;7.15;88.47
74940;HTU21D;63505;45.226;37.908;2023-12-20T02:30:17;7.17;88.51
74940;HTU21D;63505;45.226;37.908;2023-12-20T02:32:43;7.22;88.53
74940;HTU21D;63505;45.226;37.908;2023-12-20T02:35:09;7.27;88.54
74940;HTU21D;63505;45.226;37.908;2023-12-20T02:37:35;7.32;88.51
74940;HTU21D;63505;45.226;37.908;2023-12-20T02:40:01;7.39;88.50
74940;HTU21D;63505;45.226;37.908;2023-12-20T02:42:27;7.44;88.46
74940;HTU21D;63505;45.226;37.908;2023-12-20T02:44:53;7.50;88.42
74940;HTU21D;63505;45.226;37.908;2023-12-20T02:47:18;7.55;88.35
74940;HTU21D;63505;45.226;37.908;2023-12-20T02:49:44;7.58;88.27
74940;HTU21D;63505;45.226;37.908;2023-12-20T02:52:10;7.58;88.24
74940;HTU21D;63505;45.226;37.908;2023-12-20T02:54:36;7.60;88.25
74940;HTU21D;63505;45.226;37.908;2023-12-20T02:57:02;7.60;88.26
74940;HTU21D;63505;45.226;37.908;2023-12-20T02:59:28;7.62;88.29
74940;HTU21D;63505;45.226;37.908;2023-12-20T03:01:54;7.64;88.34
74940;HTU21D;63505;45.226;37.908;2023-12-20T03:04:19;7.67;88.35
74940;HTU21D;63505;45.226;37.908;2023-12-20T03:06:45;7.71;88.36
74940;HTU21D;63505;45.226;37.908;2023-12-20T03:09:11;7.75;88.38
74940;HTU21D;63505;45.226;37.908;2023-12-20T03:11:37;7.81;88.35
74940;HTU21D;63505;45.226;37.908;2023-12-20T03:14:03;7.85;88.34
74940;HTU21D;63505;45.226;37.908;2023-12-20T03:16:29;7.92;88.33
74940;HTU21D;63505;45.226;37.908;2023-12-20T03:18:56;8.01;88.31
74940;HTU21D;63505;45.226;37.908;2023-12-20T03:21:22;8.09;88.28
74940;HTU21D;63505;45.226;37.908;2023-12-20T03:23:48;8.19;88.15
74940;HTU21D;63505;45.226;37.908;2023-12-20T03:26:14;8.27;88.12
74940;HTU21D;63505;45.226;37.908;2023-12-20T03:28:40;8.33;88.06
74940;HTU21D;63505;45.226;37.908;2023-12-20T03:31:06;8.41;88.02
74940;HTU21D;63505;45.226;37.908;2023-12-20T03:33:31;8.49;87.99
74940;HTU21D;63505;45.226;37.908;2023-12-20T03:35:57;8.59;87.94
74940;HTU21D;63505;45.226;37.908;2023-12-20T03:38:23;8.66;87.85
74940;HTU21D;63505;45.226;37.908;2023-12-20T03:40:50;8.73;87.77
74940;HTU21D;63505;45.226;37.908;2023-12-20T03:43:16;8.77;87.71
74940;HTU21D;63505;45.226;37.908;2023-12-20T03:45:42;8.83;87.70
74940;HTU21D;63505;45.226;37.908;2023-12-20T03:48:08;8.88;87.67
74940;HTU21D;63505;45.226;37.908;2023-12-20T03:50:35;8.94;87.67
74940;HTU21D;63505;45.226;37.908;2023-12-20T03:53:01;9.01;87.68
74940;HTU21D;63505;45.226;37.908;2023-12-20T03:55:27;9.06;87.62
74940;HTU21D;63505;45.226;37.908;2023-12-20T03:57:53;9.11;87.64
74940;HTU21D;63505;45.226;37.908;2023-12-20T04:00:19;9.20;87.61
74940;HTU21D;63505;45.226;37.908;2023-12-20T04:02:45;9.29;87.56
74940;HTU21D;63505;45.226;37.908;2023-12-20T04:05:11;9.36;87.48
74940;HTU21D;63505;45.226;37.908;2023-12-20T04:07:37;9.40;87.46
74940;HTU21D;63505;45.226;37.908;2023-12-20T04:10:04;9.45;87.48
74940;HTU21D;63505;45.226;37.908;2023-12-20T04:12:30;9.50;87.44
74940;HTU21D;63505;45.226;37.908;2023-12-20T04:14:56;9.54;87.41
74940;HTU21D;63505;45.226;37.908;2023-12-20T04:17:22;9.56;87.41
74940;HTU21D;63505;45.226;37.908;2023-12-20T04:19:51;9.57;87.43
74940;HTU21D;63505;45.226;37.908;2023-12-20T04:22:20;9.61;87.44
74940;HTU21D;63505;45.226;37.908;2023-12-20T04:24:46;9.63;87.44
74940;HTU21D;63505;45.226;37.908;2023-12-20T04:27:12;9.64;87.46
74940;HTU21D;63505;45.226;37.908;2023-12-20T04:29:38;9.63;87.47
74940;HTU21D;63505;45.226;37.908;2023-12-20T04:32:04;9.65;87.51
74940;HTU21D;63505;45.226;37.908;2023-12-20T04:34:30;9.65;87.54
74940;HTU21D;63505;45.226;37.908;2023-12-20T04:36:56;9.67;87.52
74940;HTU21D;63505;45.226;37.908;2023-12-20T04:39:22;9.67;87.53
74940;HTU21D;63505;45.226;37.908;2023-12-20T04:41:48;9.67;87.56
74940;HTU21D;63505;45.226;37.908;2023-12-20T04:44:14;9.67;87.56
74940;HTU21D;63505;45.226;37.908;2023-12-20T04:46:40;9.62;87.57
74940;HTU21D;63505;45.226;37.908;2023-12-20T04:49:06;9.55;87.66
74940;HTU21D;63505;45.226;37.908;2023-12-20T04:51:35;9.51;87.77
74940;HTU21D;63505;45.226;37.908;2023-12-20T04:54:01;9.49;87.86
74940;HTU21D;63505;45.226;37.908;2023-12-20T04:56:28;9.45;87.93
74940;HTU21D;63505;45.226;37.908;2023-12-20T04:58:54;9.44;87.97
74940;HTU21D;63505;45.226;37.908;2023-12-20T05:01:20;9.42;88.01
74940;HTU21D;63505;45.226;37.908;2023-12-20T05:03:47;9.40;88.04
74940;HTU21D;63505;45.226;37.908;2023-12-20T05:06:13;9.41;88.07
74940;HTU21D;63505;45.226;37.908;2023-12-20T05:08:38;9.44;88.06
74940;HTU21D;63505;45.226;37.908;2023-12-20T05:11:04;9.46;88.04
74940;HTU21D;63505;45.226;37.908;2023-12-20T05:13:30;9.48;88.03
74940;HTU21D;63505;45.226;37.908;2023-12-20T05:15:56;9.49;87.99
74940;HTU21D;63505;45.226;37.908;2023-12-20T05:18:22;9.52;87.97
74940;HTU21D;63505;45.226;37.908;2023-12-20T05:20:49;9.54;87.93
74940;HTU21D;63505;45.226;37.908;2023-12-20T05:23:16;9.57;87.91
74940;HTU21D;63505;45.226;37.908;2023-12-20T05:25:42;9.65;87.86
74940;HTU21D;63505;45.226;37.908;2023-12-20T05:28:08;9.75;87.78
74940;HTU21D;63505;45.226;37.908;2023-12-20T05:30:34;9.82;87.68
74940;HTU21D;63505;45.226;37.908;2023-12-20T05:33:00;9.92;87.54
74940;HTU21D;63505;45.226;37.908;2023-12-20T05:35:26;10.03;87.44
74940;HTU21D;63505;45.226;37.908;2023-12-20T05:37:52;10.13;87.26
74940;HTU21D;63505;45.226;37.908;2023-12-20T05:40:17;10.22;87.15
74940;HTU21D;63505;45.226;37.908;2023-12-20T05:42:43;10.31;87.08
74940;HTU21D;63505;45.226;37.908;2023-12-20T05:45:09;10.41;86.96
74940;HTU21D;63505;45.226;37.908;2023-12-20T05:47:36;10.51;86.83
74940;HTU21D;63505;45.226;37.908;2023-12-20T05:50:02;10.57;86.77
74940;HTU21D;63505;45.226;37.908;2023-12-20T05:52:29;10.69;86.74
74940;HTU21D;63505;45.226;37.908;2023-12-20T05:54:55;10.81;86.59
74940;HTU21D;63505;45.226;37.908;2023-12-20T05:57:23;10.97;86.54
74940;HTU21D;63505;45.226;37.908;2023-12-20T05:59:49;11.10;86.28
74940;HTU21D;63505;45.226;37.908;2023-12-20T06:02:15;11.24;86.17
74940;HTU21D;63505;45.226;37.908;2023-12-20T06:04:43;11.40;85.97
74940;HTU21D;63505;45.226;37.908;2023-12-20T06:07:11;11.59;85.69
74940;HTU21D;63505;45.226;37.908;2023-12-20T06:09:37;11.71;85.53
74940;HTU21D;63505;45.226;37.908;2023-12-20T06:12:04;11.82;85.31
74940;HTU21D;63505;45.226;37.908;2023-12-20T06:14:29;11.89;85.21
74940;HTU21D;63505;45.226;37.908;2023-12-20T06:16:57;11.91;84.98
74940;HTU21D;63505;45.226;37.908;2023-12-20T06:19:23;11.86;84.98
74940;HTU21D;63505;45.226;37.908;2023-12-20T06:21:49;11.74;84.94
74940;HTU21D;63505;45.226;37.908;2023-12-20T06:24:14;11.59;85.03
74940;HTU21D;63505;45.226;37.908;2023-12-20T06:26:40;11.47;85.21
74940;HTU21D;63505;45.226;37.908;2023-12-20T06:29:06;11.36;85.42
74940;HTU21D;63505;45.226;37.908;2023-12-20T06:31:32;11.27;85.57
74940;HTU21D;63505;45.226;37.908;2023-12-20T06:33:59;11.22;85.67
74940;HTU21D;63505;45.226;37.908;2023-12-20T06:36:26;11.16;85.76
74940;HTU21D;63505;45.226;37.908;2023-12-20T06:38:52;11.13;85.82
74940;HTU21D;63505;45.226;37.908;2023-12-20T06:41:18;11.10;85.85
74940;HTU21D;63505;45.226;37.908;2023-12-20T06:43:44;11.09;85.84
74940;HTU21D;63505;45.226;37.908;2023-12-20T06:46:10;11.09;85.77
74940;HTU21D;63505;45.226;37.908;2023-12-20T06:48:37;11.08;85.64
74940;HTU21D;63505;45.226;37.908;2023-12-20T06:51:03;11.08;85.59
74940;HTU21D;63505;45.226;37.908;2023-12-20T06:53:29;11.05;85.55
74940;HTU21D;63505;45.226;37.908;2023-12-20T06:55:55;11.05;85.49
74940;HTU21D;63505;45.226;37.908;2023-12-20T06:58:22;11.02;85.46
74940;HTU21D;63505;45.226;37.908;2023-12-20T07:00:48;11.04;85.36
74940;HTU21D;63505;45.226;37.908;2023-12-20T07:03:14;11.02;85.19
74940;HTU21D;63505;45.226;37.908;2023-12-20T07:05:40;11.03;85.13
74940;HTU21D;63505;45.226;37.908;2023-12-20T07:08:06;11.05;85.02
74940;HTU21D;63505;45.226;37.908;2023-12-20T07:10:32;11.09;84.88
74940;HTU21D;63505;45.226;37.908;2023-12-20T07:12:58;11.12;84.72
74940;HTU21D;63505;45.226;37.908;2023-12-20T07:15:24;11.17;84.46
74940;HTU21D;63505;45.226;37.908;2023-12-20T07:17:50;11.42;84.29
74940;HTU21D;63505;45.226;37.908;2023-12-20T07:20:21;11.81;83.33
74940;HTU21D;63505;45.226;37.908;2023-12-20T07:22:51;12.19;82.36
74940;HTU21D;63505;45.226;37.908;2023-12-20T07:25:17;12.48;81.75
74940;HTU21D;63505;45.226;37.908;2023-12-20T07:27:43;12.74;81.17
74940;HTU21D;63505;45.226;37.908;2023-12-20T07:30:09;12.92;80.91
74940;HTU21D;63505;45.226;37.908;2023-12-20T07:32:35;13.11;79.88
74940;HTU21D;63505;45.226;37.908;2023-12-20T07:35:01;13.22;78.26
74940;HTU21D;63505;45.226;37.908;2023-12-20T07:37:28;13.27;77.04
74940;HTU21D;63505;45.226;37.908;2023-12-20T07:39:54;13.32;76.75
74940;HTU21D;63505;45.226;37.908;2023-12-20T07:42:20;13.40;76.25
74940;HTU21D;63505;45.226;37.908;2023-12-20T07:44:47;13.44;76.21
74940;HTU21D;63505;45.226;37.908;2023-12-20T07:47:13;13.45;76.20
74940;HTU21D;63505;45.226;37.908;2023-12-20T07:49:42;13.51;76.25
74940;HTU21D;63505;45.226;37.908;2023-12-20T07:52:08;13.40;75.09
74940;HTU21D;63505;45.226;37.908;2023-12-20T07:54:34;13.44;75.68
74940;HTU21D;63505;45.226;37.908;2023-12-20T07:57:02;13.50;75.69
74940;HTU21D;63505;45.226;37.908;2023-12-20T07:59:28;13.58;75.45
74940;HTU21D;63505;45.226;37.908;2023-12-20T08:01:54;13.58;74.79
74940;HTU21D;63505;45.226;37.908;2023-12-20T08:04:20;13.53;74.25
74940;HTU21D;63505;45.226;37.908;2023-12-20T08:06:46;13.49;74.69
74940;HTU21D;63505;45.226;37.908;2023-12-20T08:09:11;13.47;74.77
74940;HTU21D;63505;45.226;37.908;2023-12-20T08:11:37;13.37;74.64
74940;HTU21D;63505;45.226;37.908;2023-12-20T08:14:03;13.35;74.44
74940;HTU21D;63505;45.226;37.908;2023-12-20T08:16:29;13.32;74.06
74940;HTU21D;63505;45.226;37.908;2023-12-20T08:18:55;13.25;74.29
74940;HTU21D;63505;45.226;37.908;2023-12-20T08:21:21;13.30;74.60
74940;HTU21D;63505;45.226;37.908;2023-12-20T08:23:48;13.43;74.38
74940;HTU21D;63505;45.226;37.908;2023-12-20T08:26:18;13.53;74.28
74940;HTU21D;63505;45.226;37.908;2023-12-20T08:28:46;13.60;74.54
74940;HTU21D;63505;45.226;37.908;2023-12-20T08:31:18;13.71;74.35
74940;HTU21D;63505;45.226;37.908;2023-12-20T08:33:45;13.80;74.22
74940;HTU21D;63505;45.226;37.908;2023-12-20T08:36:12;13.84;74.36
74940;HTU21D;63505;45.226;37.908;2023-12-20T08:38:38;13.94;74.48
74940;HTU21D;63505;45.226;37.908;2023-12-20T08:41:04;14.05;74.34
74940;HTU21D;63505;45.226;37.908;2023-12-20T08:43:34;14.05;74.00
74940;HTU21D;63505;45.226;37.908;2023-12-20T08:46:01;14.14;73.61
74940;HTU21D;63505;45.226;37.908;2023-12-20T08:48:28;14.10;73.28
74940;HTU21D;63505;45.226;37.908;2023-12-20T08:50:54;14.01;72.81
74940;HTU21D;63505;45.226;37.908;2023-12-20T08:53:20;14.05;73.04
74940;HTU21D;63505;45.226;37.908;2023-12-20T08:55:46;14.07;72.49
74940;HTU21D;63505;45.226;37.908;2023-12-20T08:58:13;14.11;72.33
74940;HTU21D;63505;45.226;37.908;2023-12-20T09:00:39;14.04;72.16
74940;HTU21D;63505;45.226;37.908;2023-12-20T09:03:05;13.98;72.61
74940;HTU21D;63505;45.226;37.908;2023-12-20T09:05:31;14.05;71.65
74940;HTU21D;63505;45.226;37.908;2023-12-20T09:07:57;14.07;71.19
74940;HTU21D;63505;45.226;37.908;2023-12-20T09:10:22;14.10;71.35
74940;HTU21D;63505;45.226;37.908;2023-12-20T09:12:50;14.23;71.17
74940;HTU21D;63505;45.226;37.908;2023-12-20T09:15:16;14.20;70.13
74940;HTU21D;63505;45.226;37.908;2023-12-20T09:17:42;14.17;69.74
74940;HTU21D;63505;45.226;37.908;2023-12-20T09:20:09;14.12;68.84
74940;HTU21D;63505;45.226;37.908;2023-12-20T09:22:35;14.08;68.89
74940;HTU21D;63505;45.226;37.908;2023-12-20T09:25:01;14.15;69.06
74940;HTU21D;63505;45.226;37.908;2023-12-20T09:27:30;14.13;68.88
74940;HTU21D;63505;45.226;37.908;2023-12-20T09:29:55;14.14;68.60
74940;HTU21D;63505;45.226;37.908;2023-12-20T09:32:21;14.12;68.36
74940;HTU21D;63505;45.226;37.908;2023-12-20T09:34:47;14.06;67.96
74940;HTU21D;63505;45.226;37.908;2023-12-20T09:37:13;14.07;68.03
74940;HTU21D;63505;45.226;37.908;2023-12-20T09:39:39;14.10;68.30
74940;HTU21D;63505;45.226;37.908;2023-12-20T09:42:06;14.20;68.68
74940;HTU21D;63505;45.226;37.908;2023-12-20T09:44:34;14.20;68.71
74940;HTU21D;63505;45.226;37.908;2023-12-20T09:47:03;14.28;68.62
74940;HTU21D;63505;45.226;37.908;2023-12-20T09:49:29;14.33;68.36
74940;HTU21D;63505;45.226;37.908;2023-12-20T09:51:56;14.33;67.89
74940;HTU21D;63505;45.226;37.908;2023-12-20T09:54:23;14.27;67.49
74940;HTU21D;63505;45.226;37.908;2023-12-20T09:56:49;14.26;67.43
74940;HTU21D;63505;45.226;37.908;2023-12-20T09:59:16;14.35;67.75
74940;HTU21D;63505;45.226;37.908;2023-12-20T10:01:42;14.34;67.82
74940;HTU21D;63505;45.226;37.908;2023-12-20T10:04:09;14.32;67.36
74940;HTU21D;63505;45.226;37.908;2023-12-20T10:06:39;14.29;67.81
74940;HTU21D;63505;45.226;37.908;2023-12-20T10:09:05;14.44;67.70
74940;HTU21D;63505;45.226;37.908;2023-12-20T10:11:32;14.40;67.68
74940;HTU21D;63505;45.226;37.908;2023-12-20T10:14:00;14.19;67.79
74940;HTU21D;63505;45.226;37.908;2023-12-20T10:16:27;13.93;68.06
74940;HTU21D;63505;45.226;37.908;2023-12-20T10:18:54;13.94;68.63
74940;HTU21D;63505;45.226;37.908;2023-12-20T10:21:21;13.94;68.33
74940;HTU21D;63505;45.226;37.908;2023-12-20T10:23:51;14.03;68.27
74940;HTU21D;63505;45.226;37.908;2023-12-20T10:26:24;14.06;68.14
74940;HTU21D;63505;45.226;37.908;2023-12-20T10:28:53;13.92;68.14
74940;HTU21D;63505;45.226;37.908;2023-12-20T10:31:35;13.88;68.51
74940;HTU21D;63505;45.226;37.908;2023-12-20T10:34:02;13.81;68.54
74940;HTU21D;63505;45.226;37.908;2023-12-20T10:36:32;13.65;68.63
74940;HTU21D;63505;45.226;37.908;2023-12-20T10:38:59;13.56;68.78
74940;HTU21D;63505;45.226;37.908;2023-12-20T10:41:31;13.50;68.84
74940;HTU21D;63505;45.226;37.908;2023-12-20T10:44:02;13.41;68.89
74940;HTU21D;63505;45.226;37.908;2023-12-20T10:46:29;13.34;69.04
74940;HTU21D;63505;45.226;37.908;2023-12-20T10:48:56;13.24;69.04
74940;HTU21D;63505;45.226;37.908;2023-12-20T10:51:23;13.21;69.31
74940;HTU21D;63505;45.226;37.908;2023-12-20T10:53:51;13.30;69.33
74940;HTU21D;63505;45.226;37.908;2023-12-20T10:56:18;13.33;69.12
74940;HTU21D;63505;45.226;37.908;2023-12-20T10:58:45;13.23;69.24
74940;HTU21D;63505;45.226;37.908;2023-12-20T11:01:16;13.10;69.16
74940;HTU21D;63505;45.226;37.908;2023-12-20T11:03:49;13.02;69.22
74940;HTU21D;63505;45.226;37.908;2023-12-20T11:06:40;13.04;69.42
74940;HTU21D;63505;45.226;37.908;2023-12-20T11:14:22;13.06;69.63
74940;HTU21D;63505;45.226;37.908;2023-12-20T11:16:49;13.01;69.55
74940;HTU21D;63505;45.226;37.908;2023-12-20T11:19:17;12.97;69.74
74940;HTU21D;63505;45.226;37.908;2023-12-20T11:21:42;12.96;69.85
74940;HTU21D;63505;45.226;37.908;2023-12-20T11:24:09;12.94;69.90
74940;HTU21D;63505;45.226;37.908;2023-12-20T11:26:35;12.94;70.00
74940;HTU21D;63505;45.226;37.908;2023-12-20T11:29:33;12.92;70.05
74940;HTU21D;63505;45.226;37.908;2023-12-20T11:32:00;12.96;70.10
74940;HTU21D;63505;45.226;37.908;2023-12-20T11:34:28;13.01;70.23
74940;HTU21D;63505;45.226;37.908;2023-12-20T11:36:58;13.15;70.16
74940;HTU21D;63505;45.226;37.908;2023-12-20T11:39:26;13.30;70.03
74940;HTU21D;63505;45.226;37.908;2023-12-20T11:41:54;13.32;69.80
74940;HTU21D;63505;45.226;37.908;2023-12-20T11:44:21;13.33;70.13
74940;HTU21D;63505;45.226;37.908;2023-12-20T11:46:47;13.31;70.14
74940;HTU21D;63505;45.226;37.908;2023-12-20T11:49:13;13.31;70.23
74940;HTU21D;63505;45.226;37.908;2023-12-20T11:51:42;13.36;69.86
74940;HTU21D;63505;45.226;37.908;2023-12-20T11:54:09;13.37;69.47
74940;HTU21D;63505;45.226;37.908;2023-12-20T11:56:36;13.38;69.50
74940;HTU21D;63505;45.226;37.908;2023-12-20T11:59:03;13.35;69.58
74940;HTU21D;63505;45.226;37.908;2023-12-20T12:01:28;13.37;69.65
74940;HTU21D;63505;45.226;37.908;2023-12-20T12:04:04;13.46;69.89
74940;HTU21D;63505;45.226;37.908;2023-12-20T12:06:30;13.60;70.18
74940;HTU21D;63505;45.226;37.908;2023-12-20T12:08:56;13.73;70.00
74940;HTU21D;63505;45.226;37.908;2023-12-20T12:11:22;13.75;69.74
74940;HTU21D;63505;45.226;37.908;2023-12-20T12:13:49;13.83;69.87
74940;HTU21D;63505;45.226;37.908;2023-12-20T12:16:19;13.95;69.83
74940;HTU21D;63505;45.226;37.908;2023-12-20T12:18:45;14.03;69.76
74940;HTU21D;63505;45.226;37.908;2023-12-20T12:21:19;14.00;69.59
74940;HTU21D;63505;45.226;37.908;2023-12-20T12:23:46;13.93;69.58
74940;HTU21D;63505;45.226;37.908;2023-12-20T12:26:12;13.91;69.73
74940;HTU21D;63505;45.226;37.908;2023-12-20T12:28:42;13.83;69.46
74940;HTU21D;63505;45.226;37.908;2023-12-20T12:31:09;13.75;69.45
74940;HTU21D;63505;45.226;37.908;2023-12-20T12:33:40;13.76;69.57
74940;HTU21D;63505;45.226;37.908;2023-12-20T12:36:07;13.73;69.04
74940;HTU21D;63505;45.226;37.908;2023-12-20T12:38:33;13.61;68.92
74940;HTU21D;63505;45.226;37.908;2023-12-20T12:41:00;13.52;68.96
74940;HTU21D;63505;45.226;37.908;2023-12-20T12:43:26;13.37;68.92
74940;HTU21D;63505;45.226;37.908;2023-12-20T12:45:52;13.31;69.11
74940;HTU21D;63505;45.226;37.908;2023-12-20T12:48:18;13.34;69.65
74940;HTU21D;63505;45.226;37.908;2023-12-20T12:50:45;13.38;70.07
74940;HTU21D;63505;45.226;37.908;2023-12-20T12:53:11;13.35;70.14
74940;HTU21D;63505;45.226;37.908;2023-12-20T12:55:37;13.37;70.43
74940;HTU21D;63505;45.226;37.908;2023-12-20T12:58:04;13.38;70.68
74940;HTU21D;63505;45.226;37.908;2023-12-20T13:00:30;13.43;70.72
74940;HTU21D;63505;45.226;37.908;2023-12-20T13:02:56;13.44;71.12
74940;HTU21D;63505;45.226;37.908;2023-12-20T13:05:22;13.39;71.09
74940;HTU21D;63505;45.226;37.908;2023-12-20T13:07:48;13.37;71.22
74940;HTU21D;63505;45.226;37.908;2023-12-20T13:10:14;13.31;71.13
74940;HTU21D;63505;45.226;37.908;2023-12-20T13:12:42;13.25;71.21
74940;HTU21D;63505;45.226;37.908;2023-12-20T13:15:08;13.20;71.34
74940;HTU21D;63505;45.226;37.908;2023-12-20T13:17:34;13.11;71.27
74940;HTU21D;63505;45.226;37.908;2023-12-20T13:20:00;13.02;71.16
74940;HTU21D;63505;45.226;37.908;2023-12-20T13:22:26;12.90;71.22
74940;HTU21D;63505;45.226;37.908;2023-12-20T13:24:52;12.80;71.28
74940;HTU21D;63505;45.226;37.908;2023-12-20T13:27:18;12.64;71.36
74940;HTU21D;63505;45.226;37.908;2023-12-20T13:29:44;12.43;71.45
74940;HTU21D;63505;45.226;37.908;2023-12-20T13:32:10;12.25;71.58
74940;HTU21D;63505;45.226;37.908;2023-12-20T13:34:35;12.07;71.66
74940;HTU21D;63505;45.226;37.908;2023-12-20T13:37:01;11.92;71.68
74940;HTU21D;63505;45.226;37.908;2023-12-20T13:39:27;11.78;71.71
74940;HTU21D;63505;45.226;37.908;2023-12-20T13:41:53;11.67;71.79
74940;HTU21D;63505;45.226;37.908;2023-12-20T13:44:19;11.57;71.81
74940;HTU21D;63505;45.226;37.908;2023-12-20T13:46:45;11.44;71.86
74940;HTU21D;63505;45.226;37.908;2023-12-20T13:49:12;11.37;71.90
74940;HTU21D;63505;45.226;37.908;2023-12-20T13:51:38;11.29;71.93
74940;HTU21D;63505;45.226;37.908;2023-12-20T13:54:04;11.25;71.90
74940;HTU21D;63505;45.226;37.908;2023-12-20T13:56:29;11.23;71.86
74940;HTU21D;63505;45.226;37.908;2023-12-20T13:58:55;11.17;71.85
74940;HTU21D;63505;45.226;37.908;2023-12-20T14:01:23;11.11;71.88
74940;HTU21D;63505;45.226;37.908;2023-12-20T14:03:48;11.05;71.92
74940;HTU21D;63505;45.226;37.908;2023-12-20T14:06:15;10.98;71.97
74940;HTU21D;63505;45.226;37.908;2023-12-20T14:08:41;10.87;72.10
74940;HTU21D;63505;45.226;37.908;2023-12-20T14:11:08;10.81;72.27
74940;HTU21D;63505;45.226;37.908;2023-12-20T14:13:34;10.80;72.37
74940;HTU21D;63505;45.226;37.908;2023-12-20T14:16:00;10.77;72.43
74940;HTU21D;63505;45.226;37.908;2023-12-20T14:18:27;10.75;72.58
74940;HTU21D;63505;45.226;37.908;2023-12-20T14:20:53;10.73;72.64
74940;HTU21D;63505;45.226;37.908;2023-12-20T14:23:19;10.71;72.70
74940;HTU21D;63505;45.226;37.908;2023-12-20T14:25:45;10.69;72.73
74940;HTU21D;63505;45.226;37.908;2023-12-20T14:28:11;10.66;72.72
74940;HTU21D;63505;45.226;37.908;2023-12-20T14:30:40;10.62;72.79
74940;HTU21D;63505;45.226;37.908;2023-12-20T14:33:06;10.57;72.82
74940;HTU21D;63505;45.226;37.908;2023-12-20T14:35:32;10.55;72.89
74940;HTU21D;63505;45.226;37.908;2023-12-20T14:37:58;10.53;72.87
74940;HTU21D;63505;45.226;37.908;2023-12-20T14:40:24;10.49;72.91
74940;HTU21D;63505;45.226;37.908;2023-12-20T14:42:50;10.42;73.03
74940;HTU21D;63505;45.226;37.908;2023-12-20T14:45:17;10.42;73.19
74940;HTU21D;63505;45.226;37.908;2023-12-20T14:47:43;10.46;73.13
74940;HTU21D;63505;45.226;37.908;2023-12-20T14:50:09;10.45;72.97
74940;HTU21D;63505;45.226;37.908;2023-12-20T14:52:36;10.35;73.14
74940;HTU21D;63505;45.226;37.908;2023-12-20T14:55:02;10.24;73.27
74940;HTU21D;63505;45.226;37.908;2023-12-20T14:57:29;10.10;73.54
74940;HTU21D;63505;45.226;37.908;2023-12-20T14:59:56;9.98;73.72
74940;HTU21D;63505;45.226;37.908;2023-12-20T15:02:22;9.83;73.99
74940;HTU21D;63505;45.226;37.908;2023-12-20T15:04:48;9.66;74.26
74940;HTU21D;63505;45.226;37.908;2023-12-20T15:07:15;9.52;74.54
74940;HTU21D;63505;45.226;37.908;2023-12-20T15:09:41;9.40;74.78